Fortunate — 3FLG6 — position and weather

sailwx.info

Track history (hours):
 
Tides and Currents Weather Stations Pressure Air Temp Water Temp Dewpoint Dewpoint Depression Visibility Wind Speed Wind Dir Waves Ship Positions

Fortunate

Last reported at 2016-Dec-02 15:08 UTC. Time now 2016-Dec-03 02:21 UTC.
Position N 32°00' E 034°29'.

Length 275 m; draft 10.4 m.

Type: Ship (hazmat cat A). MMSI: 356708000.

Date/timePositionNaut miles runAvg speedWind from/ knotsBaromVisibWave heightAir tempDewpointWater temp
2016-Dec-02 15:08N 32°00' E 034°29'2 0.2
2016-Dec-02 05:28N 32°00' E 034°32'6 1.1
2016-Dec-01 23:31N 32°02' E 034°24'7 3.5
2016-Dec-01 21:33N 32°00' E 034°32'4 0.2
2016-Dec-01 00:24N 32°03' E 034°34'810.0
2016-Nov-30 23:33N 32°11' E 034°37'1010.0
2016-Nov-30 22:33N 32°21' E 034°40'10 9.8
2016-Nov-30 21:33N 32°30' E 034°43'10 9.9
2016-Nov-30 20:33N 32°40' E 034°46'10 9.8
2016-Nov-30 19:33N 32°49' E 034°49'9 8.9
2016-Nov-30 18:33N 32°52' E 034°60'3 2.8
2016-Nov-30 17:33N 32°49' E 035°01'0 0.0
2016-Nov-30 16:34N 32°49' E 035°01'0 0.0
2016-Nov-30 15:33N 32°49' E 035°01'0 0.0
2016-Nov-30 14:34N 32°49' E 035°01'0 0.0
2016-Nov-30 13:34N 32°49' E 035°01'0 0.0
2016-Nov-30 12:33N 32°49' E 035°01'0 0.0
2016-Nov-30 11:33N 32°49' E 035°01'0 0.0
2016-Nov-30 10:33N 32°49' E 035°01'0 0.0
2016-Nov-30 09:34N 32°49' E 035°01'0 0.0
2016-Nov-30 08:33N 32°49' E 035°01'0 0.0
2016-Nov-30 07:33N 32°49' E 035°01'0 0.0
2016-Nov-30 06:33N 32°49' E 035°01'0 0.0
2016-Nov-30 05:33N 32°49' E 035°01'0 0.0
2016-Nov-30 04:33N 32°49' E 035°01'0 0.0
2016-Nov-30 03:33N 32°49' E 035°01'0 0.0
2016-Nov-30 02:33N 32°49' E 035°01'0 0.0
2016-Nov-30 01:33N 32°49' E 035°01'0 0.0
2016-Nov-30 00:33N 32°49' E 035°01'0 0.0
2016-Nov-29 23:33N 32°49' E 035°01'0 0.0
2016-Nov-29 22:33N 32°49' E 035°01'0 0.0
2016-Nov-29 21:33N 32°49' E 035°01'0 0.0
2016-Nov-29 20:33N 32°49' E 035°01'0 0.0
2016-Nov-29 19:33N 32°49' E 035°01'0 0.0
2016-Nov-29 18:33N 32°49' E 035°01'0 0.0
2016-Nov-29 15:33N 32°49' E 035°01'0 0.0
2016-Nov-29 14:33N 32°49' E 035°01'0 0.0
2016-Nov-29 13:33N 32°49' E 035°01'0 0.4
2016-Nov-29 12:33N 32°49' E 035°01'3 2.7
2016-Nov-29 11:33N 32°52' E 034°59'9 9.2
2016-Nov-29 10:33N 32°51' E 034°48'1 1.5
2016-Nov-29 09:33N 32°51' E 034°50'0 0.4
2016-Nov-29 08:33N 32°51' E 034°50'1212.0
2016-Nov-29 07:33N 32°40' E 034°46'1312.6
2016-Nov-29 06:33N 32°28' E 034°42'1312.9
2016-Nov-29 05:33N 32°15' E 034°38'1312.7
2016-Nov-29 04:33N 32°03' E 034°34'11 8.8
2016-Nov-29 03:15N 31°52' E 034°38'1 0.0
2016-Nov-28 03:11N 31°51' E 034°38'1 1.5
2016-Nov-28 02:26N 31°52' E 034°37'  
2016-Nov-24 15:33N 36°37' E 014°41'1212.5
2016-Nov-24 14:33N 36°40' E 014°25'1212.2
2016-Nov-24 13:34N 36°42' E 014°11'1212.0
2016-Nov-24 12:33N 36°44' E 013°56'1212.2
2016-Nov-24 11:33N 36°46' E 013°41'  
Track history (hours):
 
Tides and Currents Weather Stations Pressure Air Temp Water Temp Dewpoint Dewpoint Depression Visibility Wind Speed Wind Dir Waves Ship Positions

Fortunate

Last reported at 2016-Dec-02 15:08 UTC. Time now 2016-Dec-03 02:21 UTC.
Position N 32°00' E 034°29'.

Length 275 m; draft 10.4 m.

Type: Ship (hazmat cat A). MMSI: 356708000.

Date/timePositionNaut miles runAvg speedWind from/ knotsBaromVisibWave heightAir tempDewpointWater temp
2016-Dec-02 15:08N 32°00' E 034°29'2 0.2
2016-Dec-02 05:28N 32°00' E 034°32'6 1.1
2016-Dec-01 23:31N 32°02' E 034°24'7 3.5
2016-Dec-01 21:33N 32°00' E 034°32'4 0.2
2016-Dec-01 00:24N 32°03' E 034°34'810.0
2016-Nov-30 23:33N 32°11' E 034°37'1010.0
2016-Nov-30 22:33N 32°21' E 034°40'10 9.8
2016-Nov-30 21:33N 32°30' E 034°43'10 9.9
2016-Nov-30 20:33N 32°40' E 034°46'10 9.8
2016-Nov-30 19:33N 32°49' E 034°49'9 8.9
2016-Nov-30 18:33N 32°52' E 034°60'3 2.8
2016-Nov-30 17:33N 32°49' E 035°01'0 0.0
2016-Nov-30 16:34N 32°49' E 035°01'0 0.0
2016-Nov-30 15:33N 32°49' E 035°01'0 0.0
2016-Nov-30 14:34N 32°49' E 035°01'0 0.0
2016-Nov-30 13:34N 32°49' E 035°01'0 0.0
2016-Nov-30 12:33N 32°49' E 035°01'0 0.0
2016-Nov-30 11:33N 32°49' E 035°01'0 0.0
2016-Nov-30 10:33N 32°49' E 035°01'0 0.0
2016-Nov-30 09:34N 32°49' E 035°01'0 0.0
2016-Nov-30 08:33N 32°49' E 035°01'0 0.0
2016-Nov-30 07:33N 32°49' E 035°01'0 0.0
2016-Nov-30 06:33N 32°49' E 035°01'0 0.0
2016-Nov-30 05:33N 32°49' E 035°01'0 0.0
2016-Nov-30 04:33N 32°49' E 035°01'0 0.0
2016-Nov-30 03:33N 32°49' E 035°01'0 0.0
2016-Nov-30 02:33N 32°49' E 035°01'0 0.0
2016-Nov-30 01:33N 32°49' E 035°01'0 0.0
2016-Nov-30 00:33N 32°49' E 035°01'0 0.0
2016-Nov-29 23:33N 32°49' E 035°01'0 0.0
2016-Nov-29 22:33N 32°49' E 035°01'0 0.0
2016-Nov-29 21:33N 32°49' E 035°01'0 0.0
2016-Nov-29 20:33N 32°49' E 035°01'0 0.0
2016-Nov-29 19:33N 32°49' E 035°01'0 0.0
2016-Nov-29 18:33N 32°49' E 035°01'0 0.0
2016-Nov-29 15:33N 32°49' E 035°01'0 0.0
2016-Nov-29 14:33N 32°49' E 035°01'0 0.0
2016-Nov-29 13:33N 32°49' E 035°01'0 0.4
2016-Nov-29 12:33N 32°49' E 035°01'3 2.7
2016-Nov-29 11:33N 32°52' E 034°59'9 9.2
2016-Nov-29 10:33N 32°51' E 034°48'1 1.5
2016-Nov-29 09:33N 32°51' E 034°50'0 0.4
2016-Nov-29 08:33N 32°51' E 034°50'1212.0
2016-Nov-29 07:33N 32°40' E 034°46'1312.6
2016-Nov-29 06:33N 32°28' E 034°42'1312.9
2016-Nov-29 05:33N 32°15' E 034°38'1312.7
2016-Nov-29 04:33N 32°03' E 034°34'11 8.8
2016-Nov-29 03:15N 31°52' E 034°38'1 0.0
2016-Nov-28 03:11N 31°51' E 034°38'1 1.5
2016-Nov-28 02:26N 31°52' E 034°37'  
2016-Nov-24 15:33N 36°37' E 014°41'1212.5
2016-Nov-24 14:33N 36°40' E 014°25'1212.2
2016-Nov-24 13:34N 36°42' E 014°11'1212.0
2016-Nov-24 12:33N 36°44' E 013°56'1212.2
2016-Nov-24 11:33N 36°46' E 013°41'  

Dump ship's entire track history